Time;durP1;ratioP1;P1;durP2;ratioP2;P2;SDS_P1;SDS_P2;PMS_P1;PMS_P2;Temp;Humidity;BMP_temperature;BMP_pressure;BME280_temperature;BME280_humidity;BME280_pressure;Samples;Min_cycle;Max_cycle;Signal;HPM_P1;HPM_P2
2024/02/10 00:02:24;;;;;;;11.80;6.47;;;;;;;8.94;100.00;98163.81;5043590;28;20492;-84
2024/02/10 00:04:53;;;;;;;10.88;5.70;;;;;;;8.93;100.00;98170.81;5025357;28;20563;-85
2024/02/10 00:07:20;;;;;;;10.85;5.38;;;;;;;8.94;100.00;98158.59;5044124;28;20052;-83
2024/02/10 00:09:49;;;;;;;8.70;5.55;;;;;;;8.92;100.00;98163.88;5031090;28;20033;-83
2024/02/10 00:12:21;;;;;;;15.27;6.70;;;;;;;8.92;100.00;98158.69;5046462;28;20045;-85
2024/02/10 00:14:51;;;;;;;11.50;6.43;;;;;;;8.92;100.00;98158.69;5031121;28;20132;-85
2024/02/10 00:17:17;;;;;;;8.30;5.75;;;;;;;8.90;100.00;98163.13;5024649;28;20057;-84
2024/02/10 00:19:46;;;;;;;15.90;6.95;;;;;;;8.89;100.00;98168.38;5048346;28;20049;-83
2024/02/10 00:22:13;;;;;;;10.05;6.05;;;;;;;8.87;100.00;98165.84;5043523;28;20036;-85
2024/02/10 00:24:40;;;;;;;11.48;5.57;;;;;;;8.86;100.00;98174.56;5030896;28;20431;-83
2024/02/10 00:27:06;;;;;;;10.55;5.68;;;;;;;8.84;100.00;98167.72;5039302;28;20061;-84
2024/02/10 00:29:37;;;;;;;9.63;5.78;;;;;;;8.83;100.00;98173.88;5040811;28;20037;-85
2024/02/10 00:32:09;;;;;;;17.58;5.88;;;;;;;8.83;100.00;98168.66;5028091;28;20051;-84
2024/02/10 00:34:41;;;;;;;11.65;6.80;;;;;;;8.84;100.00;98171.22;5042704;28;20447;-82
2024/02/10 00:37:09;;;;;;;12.25;7.53;;;;;;;8.86;100.00;98171.13;5028895;28;20045;-83
2024/02/10 00:39:36;;;;;;;12.35;5.80;;;;;;;8.86;100.00;98173.75;5028693;28;20046;-84
2024/02/10 00:42:03;;;;;;;14.30;6.72;;;;;;;8.87;100.00;98171.06;5043664;28;20133;-84
2024/02/10 00:44:32;;;;;;;11.85;6.45;;;;;;;8.90;100.00;98165.75;5025297;28;21179;-84
2024/02/10 00:46:58;;;;;;;8.55;5.80;;;;;;;8.90;100.00;98162.25;5023417;28;20053;-85
2024/02/10 00:49:27;;;;;;;12.88;6.78;;;;;;;8.91;100.00;98164.81;5024750;28;20798;-83
2024/02/10 00:51:57;;;;;;;8.60;6.07;;;;;;;8.91;100.00;98167.41;5042120;28;20053;-83
2024/02/10 00:54:29;;;;;;;10.73;7.28;;;;;;;8.91;100.00;98158.75;5046364;28;20102;-83
2024/02/10 00:56:56;;;;;;;11.55;6.70;;;;;;;8.88;100.00;98166.72;5027854;28;20041;-83
2024/02/10 00:59:23;;;;;;;12.45;6.68;;;;;;;8.87;100.00;98162.41;5029562;28;20143;-83
2024/02/10 01:01:52;;;;;;;11.93;7.03;;;;;;;8.85;100.00;98161.59;5046540;28;20099;-84
2024/02/10 01:04:24;;;;;;;10.50;6.72;;;;;;;8.83;100.00;98172.09;5049951;28;20073;-84
2024/02/10 01:06:53;;;;;;;10.20;6.18;;;;;;;8.81;100.00;98158.28;5060141;28;20050;-83
2024/02/10 01:09:20;;;;;;;11.23;6.22;;;;;;;8.83;100.00;98164.28;5047282;28;20086;-82
2024/02/10 01:11:50;;;;;;;12.73;6.65;;;;;;;8.84;100.00;98163.38;5029966;28;20054;-84
2024/02/10 01:14:19;;;;;;;13.07;6.55;;;;;;;8.83;100.00;98159.06;5047071;28;20420;-83
2024/02/10 01:16:48;;;;;;;13.43;6.78;;;;;;;8.85;100.00;98170.28;5029571;28;20059;-84
2024/02/10 01:19:19;;;;;;;9.18;5.95;;;;;;;8.86;100.00;98163.31;5048772;28;20104;-84
2024/02/10 01:21:46;;;;;;;14.48;6.57;;;;;;;8.85;100.00;98161.59;5029656;28;20043;-85
2024/02/10 01:24:12;;;;;;;11.88;7.03;;;;;;;8.85;100.00;98159.00;5030500;28;20052;-84
2024/02/10 01:26:50;;;;;;;15.40;7.45;;;;;;;8.85;100.00;98166.81;5035539;28;20041;-83
2024/02/10 01:29:17;;;;;;;14.27;6.88;;;;;;;8.84;100.00;98170.34;5035737;28;20045;-82
2024/02/10 01:31:46;;;;;;;8.85;5.82;;;;;;;8.82;100.00;98165.19;5039380;28;20057;-84
2024/02/10 01:34:17;;;;;;;12.93;6.93;;;;;;;8.83;100.00;98166.88;5050736;28;20079;-84
2024/02/10 01:36:44;;;;;;;10.73;6.70;;;;;;;8.85;100.00;98170.28;5032971;28;20047;-84
2024/02/10 01:39:11;;;;;;;14.07;6.90;;;;;;;8.86;100.00;98171.13;5046753;28;20040;-85
2024/02/10 01:41:38;;;;;;;16.15;8.05;;;;;;;8.87;100.00;98165.00;5046962;28;20041;-83
2024/02/10 01:44:05;;;;;;;10.65;5.65;;;;;;;8.88;100.00;98167.53;5046696;28;20080;-85
2024/02/10 01:46:32;;;;;;;13.10;6.70;;;;;;;8.89;100.00;98166.63;5042933;28;20113;-84
2024/02/10 01:48:59;;;;;;;9.93;6.53;;;;;;;8.91;100.00;98164.81;5027556;28;20126;-83
2024/02/10 01:51:27;;;;;;;13.55;7.25;;;;;;;8.90;100.00;98167.47;5046091;28;20076;-84
2024/02/10 01:53:56;;;;;;;17.15;7.00;;;;;;;8.88;100.00;98164.94;5046778;28;20057;-85
2024/02/10 01:56:24;;;;;;;11.70;7.03;;;;;;;8.89;100.00;98165.78;5030215;28;20059;-85
2024/02/10 01:58:54;;;;;;;12.43;7.25;;;;;;;8.89;100.00;98161.44;5030310;28;20065;-84
2024/02/10 02:01:26;;;;;;;12.40;6.72;;;;;;;8.91;100.00;98159.59;5032696;28;20441;-84
2024/02/10 02:03:57;;;;;;;13.98;8.27;;;;;;;8.91;100.00;98156.13;5029353;28;20052;-84
2024/02/10 02:06:24;;;;;;;12.68;6.43;;;;;;;8.89;100.00;98157.94;5029882;28;20052;-85
2024/02/10 02:09:00;;;;;;;11.18;6.95;;;;;;;8.90;100.00;98164.88;5045357;28;20065;-84
2024/02/10 02:11:31;;;;;;;12.88;7.72;;;;;;;8.88;100.00;98159.72;5029240;28;20100;-83
2024/02/10 02:14:00;;;;;;;14.60;6.68;;;;;;;8.87;100.00;98168.47;5032291;28;20049;-84
2024/02/10 02:16:28;;;;;;;15.55;7.25;;;;;;;8.86;100.00;98169.34;5049018;28;20045;-85
2024/02/10 02:18:55;;;;;;;12.52;6.95;;;;;;;8.86;100.00;98169.34;5044119;28;20029;-84
2024/02/10 02:21:27;;;;;;;11.77;7.63;;;;;;;8.85;100.00;98174.66;5031824;28;20114;-84
2024/02/10 02:23:57;;;;;;;10.60;6.80;;;;;;;8.84;100.00;98171.22;5045687;28;20045;-84
2024/02/10 02:26:23;;;;;;;10.10;6.95;;;;;;;8.83;100.00;98169.50;5048454;28;20065;-83
2024/02/10 02:28:50;;;;;;;10.15;6.75;;;;;;;8.81;100.00;98173.91;5049747;28;20056;-85
2024/02/10 02:31:17;;;;;;;14.45;8.57;;;;;;;8.81;100.00;98171.31;5029949;28;20045;-84
2024/02/10 02:33:44;;;;;;;11.82;7.43;;;;;;;8.81;100.00;98175.69;5040506;28;20820;-83
2024/02/10 02:36:22;;;;;;;13.32;6.95;;;;;;;8.78;100.00;98174.91;5032826;28;20094;-84
2024/02/10 02:38:48;;;;;;;16.63;7.10;;;;;;;8.78;100.00;98172.28;5028511;28;20159;-83
2024/02/10 02:41:18;;;;;;;14.82;8.60;;;;;;;8.77;100.00;98177.56;5011177;28;20172;-83
2024/02/10 02:43:45;;;;;;;10.60;6.82;;;;;;;8.78;100.00;98176.66;5046825;28;20049;-84
2024/02/10 02:46:14;;;;;;;9.77;6.90;;;;;;;8.77;100.00;98178.44;5044620;28;20041;-83
2024/02/10 02:48:42;;;;;;;14.05;6.55;;;;;;;8.78;100.00;98187.09;5050350;28;20127;-84
2024/02/10 02:51:08;;;;;;;11.93;6.15;;;;;;;8.76;100.00;98186.31;5040625;28;20406;-84
2024/02/10 02:53:37;;;;;;;11.65;7.60;;;;;;;8.71;100.00;98186.50;5031370;28;20098;-84
2024/02/10 02:56:09;;;;;;;13.43;8.52;;;;;;;8.69;100.00;98185.72;5029294;28;20049;-84
2024/02/10 02:58:38;;;;;;;11.57;6.72;;;;;;;8.68;100.00;98191.00;5028324;28;20123;-83
2024/02/10 03:01:07;;;;;;;11.60;7.05;;;;;;;8.67;100.00;98195.38;5044576;28;20045;-83
2024/02/10 03:03:36;;;;;;;9.98;6.93;;;;;;;8.66;100.00;98198.88;5044513;28;20044;-84
2024/02/10 03:06:11;;;;;;;15.75;7.18;;;;;;;8.64;100.00;98202.47;5047128;28;20048;-84
2024/02/10 03:08:42;;;;;;;13.52;7.78;;;;;;;8.63;100.00;98200.75;5033037;28;20041;-83
2024/02/10 03:11:13;;;;;;;14.48;7.38;;;;;;;8.63;100.00;98204.25;5012304;28;20059;-84
2024/02/10 03:13:43;;;;;;;11.93;7.30;;;;;;;8.63;100.00;98208.59;5030186;28;20145;-84
2024/02/10 03:16:13;;;;;;;12.77;7.35;;;;;;;8.62;100.00;98205.16;5030825;28;20060;-83
2024/02/10 03:18:45;;;;;;;15.60;7.68;;;;;;;8.63;100.00;98212.06;5052320;28;20492;-83
2024/02/10 03:21:17;;;;;;;10.93;8.05;;;;;;;8.61;100.00;98212.09;5041987;28;20047;-85
2024/02/10 03:23:44;;;;;;;12.48;7.63;;;;;;;8.62;100.00;98210.34;5041657;28;20121;-83
2024/02/10 03:26:14;;;;;;;11.20;7.45;;;;;;;8.61;100.00;98211.25;5030080;28;20049;-81
2024/02/10 03:28:41;;;;;;;10.27;6.95;;;;;;;8.63;100.00;98214.69;5064243;28;20551;-82
2024/02/10 03:31:08;;;;;;;13.32;7.13;;;;;;;8.61;100.00;98213.88;5021613;28;20125;-82
2024/02/10 03:33:36;;;;;;;11.02;6.47;;;;;;;8.61;100.00;98214.72;5043400;28;20673;-82
2024/02/10 03:36:03;;;;;;;9.95;6.18;;;;;;;8.61;100.00;98206.88;5028249;28;20048;-80
2024/02/10 03:38:31;;;;;;;9.98;6.20;;;;;;;8.60;100.00;98205.22;5045555;28;20107;-83
2024/02/10 03:40:57;;;;;;;11.27;6.22;;;;;;;8.60;100.00;98212.16;5039646;28;20131;-84
2024/02/10 03:43:26;;;;;;;10.85;7.15;;;;;;;8.60;100.00;98217.38;5031803;28;20465;-83
2024/02/10 03:45:56;;;;;;;11.90;6.32;;;;;;;8.57;100.00;98222.72;5045464;28;20063;-82
2024/02/10 03:48:25;;;;;;;8.93;5.68;;;;;;;8.56;100.00;98214.03;5042954;28;20055;-82
2024/02/10 03:50:52;;;;;;;8.95;5.22;;;;;;;8.55;100.00;98214.97;5048197;28;20059;-81
2024/02/10 03:53:18;;;;;;;8.18;5.50;;;;;;;8.56;100.00;98215.81;5044392;28;20128;-81
2024/02/10 03:55:51;;;;;;;4.85;4.13;;;;;;;8.55;100.00;98214.97;5045922;28;20140;-81
2024/02/10 03:58:18;;;;;;;5.22;4.38;;;;;;;8.55;100.00;98204.53;5047631;28;20087;-81
2024/02/10 04:00:47;;;;;;;5.38;4.57;;;;;;;8.56;100.00;98208.81;5047048;28;20531;-81
2024/02/10 04:03:14;;;;;;;5.60;4.30;;;;;;;8.58;100.00;98217.44;5025218;28;20443;-80
2024/02/10 04:05:40;;;;;;;8.38;4.50;;;;;;;8.60;100.00;98212.16;5045985;28;20076;-80
2024/02/10 04:08:09;;;;;;;6.50;4.20;;;;;;;8.61;100.00;98219.09;5026908;28;20048;-83
2024/02/10 04:10:38;;;;;;;8.52;4.03;;;;;;;8.63;100.00;98219.03;5048026;28;20159;-81
2024/02/10 04:13:05;;;;;;;6.35;3.78;;;;;;;8.65;100.00;98223.25;5044817;28;20036;-81
2024/02/10 04:15:36;;;;;;;4.10;3.33;;;;;;;8.67;100.00;98229.28;5045640;28;20404;-83
2024/02/10 04:18:05;;;;;;;5.43;3.47;;;;;;;8.67;100.00;98221.47;5033410;28;20049;-83
2024/02/10 04:20:33;;;;;;;6.65;3.83;;;;;;;8.68;100.00;98219.69;5041697;28;20064;-81
2024/02/10 04:23:03;;;;;;;4.80;3.83;;;;;;;8.69;100.00;98214.41;5026195;28;20065;-81
2024/02/10 04:25:31;;;;;;;11.77;6.50;;;;;;;8.72;100.00;98218.66;5026577;28;20064;-82
2024/02/10 04:28:02;;;;;;;7.32;4.00;;;;;;;8.70;100.00;98221.31;5028496;28;20054;-82
2024/02/10 04:30:32;;;;;;;5.38;3.85;;;;;;;8.72;100.00;98223.88;5039821;28;20041;-82
2024/02/10 04:33:04;;;;;;;8.95;4.38;;;;;;;8.72;100.00;98221.25;5009980;28;20080;-82
2024/02/10 04:35:31;;;;;;;9.57;4.50;;;;;;;8.73;100.00;98223.78;5035355;28;20045;-81
2024/02/10 04:38:02;;;;;;;9.23;4.90;;;;;;;8.72;100.00;98221.25;5040488;28;20107;-81
2024/02/10 04:40:28;;;;;;;8.32;3.95;;;;;;;8.73;100.00;98221.19;5024567;28;20037;-82
2024/02/10 04:42:55;;;;;;;8.30;4.88;;;;;;;8.74;100.00;98232.50;5029936;28;20147;-83
2024/02/10 04:45:30;;;;;;;5.90;4.60;;;;;;;8.73;100.00;98221.19;5030026;28;20107;-81
2024/02/10 04:47:59;;;;;;;6.55;4.40;;;;;;;8.73;100.00;98226.41;5046983;28;20056;-80
2024/02/10 04:50:28;;;;;;;7.53;5.15;;;;;;;8.74;100.00;98222.06;5011742;28;20034;-81
2024/02/10 04:52:59;;;;;;;7.88;4.85;;;;;;;8.75;100.00;98226.38;5045764;28;20055;-83
2024/02/10 04:55:26;;;;;;;8.88;4.35;;;;;;;8.74;100.00;98224.66;5024196;28;20045;-83
2024/02/10 04:57:55;;;;;;;5.85;4.32;;;;;;;8.76;100.00;98223.69;5043499;28;20481;-83
2024/02/10 05:00:23;;;;;;;6.07;3.85;;;;;;;8.77;100.00;98224.53;5027708;28;20037;-82
2024/02/10 05:02:52;;;;;;;4.97;4.18;;;;;;;8.78;100.00;98218.41;5045762;28;20075;-81
2024/02/10 05:05:20;;;;;;;12.30;5.28;;;;;;;8.79;100.00;98220.09;5041829;28;20049;-81
2024/02/10 05:07:53;;;;;;;6.85;4.25;;;;;;;8.80;100.00;98206.16;5046603;28;20045;-82
2024/02/10 05:10:20;;;;;;;5.35;4.72;;;;;;;8.80;100.00;98216.59;5041671;28;20045;-80
2024/02/10 05:12:48;;;;;;;4.90;4.38;;;;;;;8.81;100.00;98210.44;5028714;28;20061;-81
2024/02/10 05:15:25;;;;;;;5.72;4.18;;;;;;;8.81;100.00;98202.63;5030049;28;20083;-82
2024/02/10 05:17:54;;;;;;;5.03;4.28;;;;;;;8.81;100.00;98196.56;5040721;28;20128;-82
2024/02/10 05:20:26;;;;;;;8.07;5.35;;;;;;;8.80;100.00;98195.72;5030932;28;20982;-81
2024/02/10 05:23:02;;;;;;;10.40;4.65;;;;;;;8.81;100.00;98196.56;5046799;28;20037;-82
2024/02/10 05:25:34;;;;;;;8.57;5.35;;;;;;;8.78;100.00;98192.31;5047136;28;20037;-83
2024/02/10 05:28:04;;;;;;;7.55;4.72;;;;;;;8.76;100.00;98195.00;5044749;28;20114;-84
2024/02/10 05:30:31;;;;;;;6.80;4.93;;;;;;;8.75;100.00;98190.69;5038751;28;20124;-81
2024/02/10 05:33:04;;;;;;;7.93;4.88;;;;;;;8.75;100.00;98192.47;5028270;28;20165;-81
2024/02/10 05:35:32;;;;;;;9.02;4.50;;;;;;;8.73;100.00;98195.09;5028074;28;20347;-82
2024/02/10 05:38:04;;;;;;;5.70;4.72;;;;;;;8.70;100.00;98192.63;5026135;28;20044;-82
2024/02/10 05:40:33;;;;;;;6.53;4.95;;;;;;;8.68;100.00;98196.22;5028500;28;20060;-81
2024/02/10 05:43:04;;;;;;;6.25;4.90;;;;;;;8.65;100.00;98191.97;5033405;28;20063;-84
2024/02/10 05:45:31;;;;;;;7.00;4.55;;;;;;;8.59;100.00;98187.00;5042612;28;20095;-81
2024/02/10 05:47:58;;;;;;;6.65;5.10;;;;;;;8.55;100.00;98194.13;5026883;28;20387;-81
2024/02/10 05:50:29;;;;;;;5.93;4.50;;;;;;;8.52;100.00;98194.22;5044175;28;20041;-82
2024/02/10 05:52:57;;;;;;;8.07;4.78;;;;;;;8.49;100.00;98194.34;5032439;28;20389;-81
2024/02/10 05:55:27;;;;;;;9.65;5.72;;;;;;;8.47;100.00;98201.38;5039572;28;20091;-84
2024/02/10 05:57:55;;;;;;;8.82;4.78;;;;;;;8.42;100.00;98203.28;5046490;28;20067;-80
2024/02/10 06:00:24;;;;;;;5.13;4.63;;;;;;;8.41;100.00;98214.66;5047434;28;20053;-82
2024/02/10 06:02:55;;;;;;;7.00;5.50;;;;;;;8.39;100.00;98212.06;5047380;28;20061;-81
2024/02/10 06:05:23;;;;;;;10.80;5.15;;;;;;;8.34;100.00;98216.63;5033872;28;20633;-81
2024/02/10 06:07:54;;;;;;;5.80;5.07;;;;;;;8.32;100.00;98217.59;5048608;28;20130;-84
2024/02/10 06:10:24;;;;;;;5.78;4.63;;;;;;;8.32;100.00;98217.59;5050953;28;20040;-81
2024/02/10 06:12:55;;;;;;;6.43;5.05;;;;;;;8.34;100.00;98221.00;5043139;28;20049;-81
2024/02/10 06:15:25;;;;;;;7.03;5.50;;;;;;;8.37;100.00;98219.13;5033361;28;20071;-81
2024/02/10 06:17:57;;;;;;;6.47;4.97;;;;;;;8.35;100.00;98213.09;5049670;28;20131;-81
2024/02/10 06:20:28;;;;;;;6.38;4.95;;;;;;;8.35;100.00;98222.69;5033581;28;20041;-83
2024/02/10 06:22:57;;;;;;;6.15;5.38;;;;;;;8.31;100.00;98218.53;5043163;28;20496;-81
2024/02/10 06:25:27;;;;;;;6.20;5.18;;;;;;;8.31;100.00;98219.34;5049477;28;20063;-81
2024/02/10 06:27:59;;;;;;;7.88;4.95;;;;;;;8.30;100.00;98228.06;5048463;28;20513;-80
2024/02/10 06:30:30;;;;;;;6.25;5.25;;;;;;;8.28;100.00;98215.09;5019853;28;20528;-81
2024/02/10 06:32:58;;;;;;;7.68;5.63;;;;;;;8.27;100.00;98225.59;5048631;28;20496;-82
2024/02/10 06:35:25;;;;;;;5.93;4.95;;;;;;;8.25;100.00;98227.41;5047003;28;20041;-81
2024/02/10 06:37:54;;;;;;;5.75;5.10;;;;;;;8.24;100.00;98231.78;5025703;28;20267;-81
2024/02/10 06:40:21;;;;;;;5.88;5.22;;;;;;;8.27;100.00;98233.41;5032304;28;20045;-82
2024/02/10 06:42:51;;;;;;;6.25;4.43;;;;;;;8.27;100.00;98236.88;5041167;28;20053;-82
2024/02/10 06:45:21;;;;;;;7.97;5.50;;;;;;;8.32;100.00;98238.44;5032088;28;20076;-82
2024/02/10 06:47:49;;;;;;;7.53;5.78;;;;;;;8.35;100.00;98246.16;5030762;28;20507;-81
2024/02/10 06:50:23;;;;;;;6.88;4.70;;;;;;;8.38;100.00;98243.41;5029178;28;20048;-82
2024/02/10 06:52:52;;;;;;;6.88;5.45;;;;;;;8.42;100.00;98245.88;5033377;28;20048;-84
2024/02/10 06:55:19;;;;;;;5.97;5.35;;;;;;;8.44;100.00;98251.00;5052444;28;20045;-82
2024/02/10 06:57:47;;;;;;;6.82;4.95;;;;;;;8.46;100.00;98248.38;5029897;28;20060;-84
2024/02/10 07:00:16;;;;;;;6.57;5.80;;;;;;;8.47;100.00;98255.28;5030832;28;20064;-81
2024/02/10 07:02:46;;;;;;;5.55;4.78;;;;;;;8.44;100.00;98254.47;5046807;28;20055;-82
2024/02/10 07:05:16;;;;;;;5.45;4.38;;;;;;;8.40;100.00;98255.50;5049606;28;21575;-84
2024/02/10 07:07:46;;;;;;;6.05;5.47;;;;;;;8.37;100.00;98259.97;5050000;28;20111;-82
2024/02/10 07:10:21;;;;;;;6.18;5.07;;;;;;;8.34;100.00;98266.16;5035970;28;20041;-82
2024/02/10 07:12:54;;;;;;;6.07;5.10;;;;;;;8.36;100.00;98271.31;5035057;28;20519;-84
2024/02/10 07:15:25;;;;;;;8.77;6.00;;;;;;;8.42;100.00;98268.47;5050705;28;20440;-84
2024/02/10 07:17:54;;;;;;;7.80;6.38;;;;;;;8.45;100.00;98273.56;5050275;28;20044;-82
2024/02/10 07:20:25;;;;;;;5.88;5.03;;;;;;;8.49;100.00;98272.56;5045729;28;20096;-85
2024/02/10 07:22:57;;;;;;;6.50;5.20;;;;;;;8.51;100.00;98273.34;5050363;28;20120;-84
2024/02/10 07:25:29;;;;;;;7.20;5.22;;;;;;;8.54;100.00;98268.03;5049291;28;20055;-84
2024/02/10 07:28:01;;;;;;;6.38;4.90;;;;;;;8.55;100.00;98272.34;5027093;28;20052;-81
2024/02/10 07:30:29;;;;;;;5.70;4.85;;;;;;;8.57;100.00;98274.88;5050716;28;20037;-82
2024/02/10 07:33:03;;;;;;;5.93;4.68;;;;;;;8.57;100.00;98269.66;5044174;28;20481;-82
2024/02/10 07:35:32;;;;;;;6.43;4.82;;;;;;;8.60;100.00;98279.97;5046271;28;20372;-83
2024/02/10 07:37:59;;;;;;;7.93;4.88;;;;;;;8.58;100.00;98277.44;5028717;28;20087;-82
2024/02/10 07:40:25;;;;;;;5.47;4.20;;;;;;;8.64;100.00;98283.31;5040639;28;20045;-82
2024/02/10 07:42:52;;;;;;;5.50;4.53;;;;;;;8.64;100.00;98285.94;5031530;28;20069;-83
2024/02/10 07:45:23;;;;;;;5.32;4.82;;;;;;;8.65;100.00;98292.84;5028510;28;20076;-83
2024/02/10 07:47:55;;;;;;;6.00;4.38;;;;;;;8.70;100.00;98302.19;5054031;28;20048;-81
2024/02/10 07:50:26;;;;;;;6.63;5.80;;;;;;;8.76;100.00;98301.06;5026181;28;20038;-84
2024/02/10 07:52:53;;;;;;;6.95;6.25;;;;;;;8.80;100.00;98305.28;5034179;28;20635;-82
2024/02/10 07:55:20;;;;;;;7.18;5.95;;;;;;;8.84;100.00;98309.47;5028715;28;20047;-83
2024/02/10 07:57:48;;;;;;;7.47;6.65;;;;;;;8.90;100.00;98316.19;5032034;28;20041;-83
2024/02/10 08:00:18;;;;;;;5.30;4.50;;;;;;;8.93;100.00;98310.88;5033460;28;20051;-83
2024/02/10 08:02:45;;;;;;;6.05;4.28;;;;;;;8.99;100.00;98318.44;5046232;28;20041;-83
2024/02/10 08:05:12;;;;;;;4.10;3.63;;;;;;;9.04;100.00;98326.09;5031714;28;20045;-83
2024/02/10 08:07:39;;;;;;;5.50;3.97;;;;;;;9.05;100.00;98327.78;5031627;28;20052;-82
2024/02/10 08:10:07;;;;;;;6.75;4.38;;;;;;;9.06;100.00;98329.47;5028631;28;20547;-82
2024/02/10 08:12:35;;;;;;;4.68;4.28;;;;;;;9.06;100.00;98337.31;5032195;28;20044;-84
2024/02/10 08:15:02;;;;;;;5.57;4.22;;;;;;;9.10;100.00;98346.72;5042829;28;20038;-83
2024/02/10 08:17:32;;;;;;;4.47;4.07;;;;;;;9.11;100.00;98332.75;5046971;28;20033;-83
2024/02/10 08:20:00;;;;;;;5.85;3.80;;;;;;;9.21;100.00;98328.84;5043442;28;20037;-82
2024/02/10 08:22:30;;;;;;;6.15;4.93;;;;;;;9.27;100.00;98333.00;5045654;28;20037;-82
2024/02/10 08:25:00;;;;;;;5.50;3.63;;;;;;;9.29;100.00;98325.94;5029461;28;20584;-82
2024/02/10 08:27:33;;;;;;;4.97;4.57;;;;;;;9.41;100.00;98328.06;5047186;28;20041;-83
2024/02/10 08:30:03;;;;;;;3.50;3.20;;;;;;;9.46;100.00;98317.41;5042908;28;20037;-83
2024/02/10 08:32:38;;;;;;;4.43;3.30;;;;;;;9.61;100.00;98313.31;5005753;28;20311;-82
2024/02/10 08:35:06;;;;;;;3.72;3.33;;;;;;;9.66;100.00;98313.09;5052498;28;20045;-82
2024/02/10 08:37:36;;;;;;;4.20;3.80;;;;;;;9.69;100.00;98313.81;5033516;28;20049;-83
2024/02/10 08:40:04;;;;;;;3.88;3.50;;;;;;;9.71;100.00;98321.59;5031509;28;20140;-82
2024/02/10 08:42:35;;;;;;;5.43;3.25;;;;;;;9.78;100.00;98317.81;5027917;28;20316;-82
2024/02/10 08:45:05;;;;;;;5.82;3.90;;;;;;;9.87;100.00;98316.56;5028170;28;20496;-82
2024/02/10 08:47:32;;;;;;;6.47;4.03;;;;;;;9.86;100.00;98320.09;5026624;28;20110;-83
2024/02/10 08:49:59;;;;;;;4.18;3.83;;;;;;;9.81;100.00;98315.03;5029727;28;20073;-83
2024/02/10 08:52:26;;;;;;;4.93;4.28;;;;;;;9.86;100.00;98322.69;5024389;28;20479;-81
2024/02/10 08:54:52;;;;;;;4.78;3.63;;;;;;;9.86;100.00;98323.53;5044184;28;20147;-82
2024/02/10 08:57:24;;;;;;;6.97;3.47;;;;;;;9.84;100.00;98328.00;5040782;28;20037;-83
2024/02/10 08:59:52;;;;;;;4.28;3.88;;;;;;;9.81;100.00;98332.50;5023199;28;20072;-82
2024/02/10 09:02:22;;;;;;;3.47;3.17;;;;;;;9.78;100.00;98336.09;5025611;28;20049;-82
2024/02/10 09:04:49;;;;;;;3.85;3.22;;;;;;;9.78;100.00;98341.31;5025183;28;20396;-82
2024/02/10 09:07:18;;;;;;;4.07;3.67;;;;;;;9.82;100.00;98335.03;5031012;28;20423;-82
2024/02/10 09:09:46;;;;;;;4.40;3.55;;;;;;;9.79;100.00;98334.31;5015906;28;20135;-81
2024/02/10 09:12:14;;;;;;;4.00;3.35;;;;;;;9.83;100.00;98339.34;5034950;28;20056;-82
2024/02/10 09:14:41;;;;;;;8.02;4.65;;;;;;;9.87;100.00;98334.84;5029015;28;20054;-83
2024/02/10 09:17:11;;;;;;;3.92;3.53;;;;;;;9.96;100.00;98333.59;5064372;28;20090;-82
2024/02/10 09:19:39;;;;;;;3.42;3.13;;;;;;;10.01;100.00;98332.47;5046602;28;20049;-82
2024/02/10 09:22:06;;;;;;;3.20;2.90;;;;;;;10.08;100.00;98336.50;5048945;28;20056;-82
2024/02/10 09:24:33;;;;;;;4.20;3.10;;;;;;;10.15;100.00;98324.00;5032798;28;20041;-82
2024/02/10 09:27:00;;;;;;;3.45;3.15;;;;;;;10.28;100.00;98332.16;5033316;28;20049;-82
2024/02/10 09:29:27;;;;;;;3.03;2.80;;;;;;;10.50;100.00;98320.75;5033083;28;20048;-80
2024/02/10 09:31:56;;;;;;;3.78;3.42;;;;;;;10.80;100.00;98315.00;5041905;28;20037;-81
2024/02/10 09:34:23;;;;;;;3.25;3.05;;;;;;;11.11;100.00;98314.38;5038735;28;20048;-83
2024/02/10 09:36:50;;;;;;;4.07;3.67;;;;;;;11.20;100.00;98307.84;5041868;28;20091;-82
2024/02/10 09:39:17;;;;;;;5.72;3.38;;;;;;;11.19;100.00;98309.59;5031932;28;20747;-82
2024/02/10 09:41:44;;;;;;;2.75;2.20;;;;;;;11.23;100.00;98308.53;5045368;28;20523;-84
2024/02/10 09:44:16;;;;;;;3.63;3.33;;;;;;;11.22;100.00;98314.72;5053927;28;20076;-82
2024/02/10 09:46:44;;;;;;;3.15;2.88;;;;;;;11.28;100.00;98310.94;5035977;28;20136;-82
2024/02/10 09:49:17;;;;;;;3.75;2.50;;;;;;;11.30;100.00;98303.81;5038288;28;20087;-86
2024/02/10 09:51:44;;;;;;;3.22;2.60;;;;;;;11.28;100.00;98305.69;5047334;28;20052;-83
2024/02/10 09:54:14;;;;;;;2.75;2.08;;;;;;;11.47;100.00;98318.72;5033466;28;20081;-83
2024/02/10 09:56:45;;;;;;;3.30;3.00;;;;;;;11.63;100.00;98310.06;5054915;28;20041;-80
2024/02/10 09:59:22;;;;;;;2.40;2.20;;;;;;;11.84;100.00;98311.59;5035397;28;20471;-82
2024/02/10 10:01:50;;;;;;;2.20;2.00;;;;;;;11.89;100.00;98314.00;5055400;28;20064;-82
2024/02/10 10:04:21;;;;;;;2.33;2.15;;;;;;;12.01;100.00;98312.53;5047584;28;20068;-84
2024/02/10 10:06:48;;;;;;;5.35;2.20;;;;;;;11.92;100.00;98312.03;5031914;28;20083;-83
2024/02/10 10:09:18;;;;;;;1.90;1.65;;;;;;;11.90;100.00;98315.66;5037597;28;20075;-83
2024/02/10 10:11:46;;;;;;;1.95;1.85;;;;;;;11.68;100.00;98311.56;5051072;28;20049;-82
2024/02/10 10:14:14;;;;;;;1.80;1.63;;;;;;;11.74;100.00;98313.84;5032272;28;20056;-84
2024/02/10 10:16:42;;;;;;;2.45;2.17;;;;;;;11.73;100.00;98322.66;5036960;28;20098;-82
2024/02/10 10:19:20;;;;;;;1.05;1.00;;;;;;;11.71;100.00;98315.78;5053563;28;20045;-83
2024/02/10 10:21:49;;;;;;;1.77;1.67;;;;;;;11.79;100.00;98307.53;5052711;28;20106;-84
2024/02/10 10:24:16;;;;;;;1.80;1.70;;;;;;;11.95;100.00;98308.44;5045908;28;20048;-84
2024/02/10 10:26:50;;;;;;;2.22;2.03;;;;;;;12.03;100.00;98310.66;5047559;28;20044;-83
2024/02/10 10:29:27;;;;;;;;;;;;;;;12.20;100.00;98308.03;5050127;28;20047;-82
2024/02/10 10:31:58;;;;;;;2.08;1.83;;;;;;;12.19;100.00;98308.94;5053913;28;19948;-82
2024/02/10 10:34:28;;;;;;;1.65;1.58;;;;;;;12.18;100.00;98309.84;5033854;28;20063;-83
2024/02/10 10:36:59;;;;;;;1.50;1.40;;;;;;;12.23;100.00;98307.00;5045938;28;20041;-84
2024/02/10 10:39:27;;;;;;;2.25;1.33;;;;;;;12.29;100.00;98290.09;5033100;28;20053;-82
2024/02/10 10:41:58;;;;;;;1.42;1.42;;;;;;;12.18;100.00;98302.00;5036147;28;20049;-82
2024/02/10 10:44:27;;;;;;;1.63;1.52;;;;;;;12.07;100.00;98297.31;5055924;28;20156;-81
2024/02/10 10:46:59;;;;;;;1.45;1.45;;;;;;;12.14;100.00;98300.47;5039063;28;20769;-81
2024/02/10 10:49:32;;;;;;;1.67;1.48;;;;;;;12.20;100.00;98304.53;5050740;28;20045;-82
2024/02/10 10:52:05;;;;;;;2.25;1.20;;;;;;;12.18;100.00;98304.63;5047913;28;20052;-83
2024/02/10 10:54:37;;;;;;;1.35;1.30;;;;;;;12.09;100.00;98307.72;5031206;28;20064;-82
2024/02/10 10:57:18;;;;;;;1.23;1.23;;;;;;;12.13;100.00;98309.25;5028820;28;20132;-84
2024/02/10 11:00:00;;;;;;;1.10;1.10;;;;;;;12.18;100.00;98306.41;5033119;28;20048;-83
2024/02/10 11:02:28;;;;;;;0.90;0.90;;;;;;;12.28;100.00;98306.75;5041940;28;20403;-81
2024/02/10 11:05:10;;;;;;;2.70;1.15;;;;;;;12.27;100.00;98310.28;5033306;28;20523;-82
2024/02/10 11:07:49;;;;;;;0.93;0.93;;;;;;;12.37;100.00;98308.88;5050417;28;20041;-83
2024/02/10 11:10:48;;;;;;;0.80;0.80;;;;;;;12.45;100.00;98298.81;5035265;28;20048;-82
2024/02/10 11:13:28;;;;;;;1.98;1.63;;;;;;;12.59;100.00;98298.03;5048771;28;20072;-82
2024/02/10 11:16:12;;;;;;;1.80;1.70;;;;;;;12.59;100.00;98298.03;5052241;28;20041;-83
2024/02/10 11:19:02;;;;;;;1.00;1.00;;;;;;;12.69;100.00;98295.78;5029190;28;20040;-82
2024/02/10 11:21:35;;;;;;;1.40;1.20;;;;;;;12.70;100.00;98295.69;5026200;28;20065;-82
2024/02/10 11:24:11;;;;;;;1.35;1.35;;;;;;;12.76;100.00;98288.41;5048247;28;20473;-83
2024/02/10 11:26:41;;;;;;;1.42;1.40;;;;;;;12.76;100.00;98285.78;5023749;28;20131;-80
2024/02/10 11:29:13;;;;;;;1.20;1.20;;;;;;;12.79;100.00;98291.72;5036734;28;20439;-82
2024/02/10 11:31:44;;;;;;;1.58;1.48;;;;;;;12.91;100.00;98280.50;5033954;28;20094;-84
2024/02/10 11:34:16;;;;;;;1.50;1.40;;;;;;;13.02;100.00;98286.94;5030297;28;20100;-81
2024/02/10 11:36:52;;;;;;;1.47;1.40;;;;;;;12.99;100.00;98280.06;5030081;28;20080;-83
2024/02/10 11:39:22;;;;;;;1.83;1.00;;;;;;;12.95;100.00;98280.34;5044598;28;20471;-82
2024/02/10 11:41:49;;;;;;;1.05;1.05;;;;;;;12.82;100.00;98278.41;5047274;28;20055;-81